Time;durP1;ratioP1;P1;durP2;ratioP2;P2;SDS_P1;SDS_P2;PMS_P1;PMS_P2;Temp;Humidity;BMP_temperature;BMP_pressure;BME280_temperature;BME280_humidity;BME280_pressure;Samples;Min_cycle;Max_cycle;Signal;HPM_P1;HPM_P2
2021/04/19 00:02:03;;;;;;;24.75;23.25;;;17.70;99.90;;;;;;5072919;28;20025;-62
2021/04/19 00:04:31;;;;;;;23.23;21.60;;;17.90;99.90;;;;;;5074045;28;20024;-70
2021/04/19 00:06:59;;;;;;;21.90;20.30;;;17.90;99.90;;;;;;5074078;28;20016;-67
2021/04/19 00:09:26;;;;;;;21.55;20.02;;;18.00;99.90;;;;;;5073913;28;20078;-70
2021/04/19 00:11:53;;;;;;;21.88;20.17;;;18.20;99.90;;;;;;5073967;28;20020;-66
2021/04/19 00:14:21;;;;;;;19.67;18.17;;;18.40;99.90;;;;;;5073912;28;20028;-65
2021/04/19 00:16:48;;;;;;;16.85;15.60;;;18.50;99.90;;;;;;5073799;28;20012;-65
2021/04/19 00:19:15;;;;;;;17.20;15.60;;;18.50;99.90;;;;;;5073678;28;20036;-68
2021/04/19 00:21:43;;;;;;;16.65;15.23;;;18.50;99.90;;;;;;5073626;28;20021;-62
2021/04/19 00:24:10;;;;;;;16.20;14.80;;;18.40;99.90;;;;;;5073486;28;20115;-71
2021/04/19 00:26:38;;;;;;;14.05;12.77;;;18.60;99.90;;;;;;5073521;28;20077;-61
2021/04/19 00:29:05;;;;;;;14.95;13.60;;;18.50;99.90;;;;;;5073390;28;20500;-60
2021/04/19 00:31:33;;;;;;;14.80;13.70;;;18.70;99.90;;;;;;5072078;28;20024;-63
2021/04/19 00:34:02;;;;;;;13.50;12.20;;;19.00;99.90;;;;;;5073404;28;20028;-61
2021/04/19 00:36:31;;;;;;;13.27;12.02;;;19.20;99.90;;;;;;5073404;28;20020;-62
2021/04/19 00:38:58;;;;;;;12.43;11.07;;;19.30;99.90;;;;;;5073134;28;20041;-64
2021/04/19 00:41:26;;;;;;;12.75;11.55;;;19.20;99.90;;;;;;5073226;28;20021;-63
2021/04/19 00:43:54;;;;;;;13.25;12.05;;;19.40;99.90;;;;;;5073271;28;20031;-58
2021/04/19 00:46:22;;;;;;;12.90;11.70;;;19.70;99.90;;;;;;5073154;28;20071;-59
2021/04/19 00:48:49;;;;;;;12.70;10.88;;;19.80;99.90;;;;;;5073110;28;20111;-60
2021/04/19 00:51:16;;;;;;;12.57;11.23;;;19.50;99.90;;;;;;5073203;28;20496;-60
2021/04/19 00:53:44;;;;;;;14.82;11.80;;;19.40;99.90;;;;;;5073089;28;20021;-61
2021/04/19 00:56:12;;;;;;;12.23;10.95;;;19.60;99.90;;;;;;5073031;28;20074;-63
2021/04/19 00:58:45;;;;;;;12.30;11.10;;;19.70;99.90;;;;;;5073381;28;20016;-64
2021/04/19 01:01:13;;;;;;;12.85;11.57;;;20.10;99.90;;;;;;5073101;28;20021;-63
2021/04/19 01:03:41;;;;;;;11.88;10.75;;;20.50;99.90;;;;;;5071569;28;20028;-63
2021/04/19 01:06:10;;;;;;;12.00;10.50;;;20.40;99.90;;;;;;5073015;28;20576;-63
2021/04/19 01:08:38;;;;;;;12.95;11.57;;;20.40;99.90;;;;;;5072968;28;20027;-62
2021/04/19 01:11:05;;;;;;;12.15;10.90;;;20.30;99.90;;;;;;5073058;28;20095;-63
2021/04/19 01:13:33;;;;;;;12.07;10.82;;;20.50;99.90;;;;;;5072919;28;20021;-63
2021/04/19 01:16:00;;;;;;;11.70;10.70;;;20.30;99.90;;;;;;5073002;28;20029;-64
2021/04/19 01:18:28;;;;;;;12.25;10.95;;;20.50;99.90;;;;;;5071727;28;20070;-63
2021/04/19 01:20:55;;;;;;;12.40;10.98;;;20.50;99.90;;;;;;5072855;28;20167;-63
2021/04/19 01:23:22;;;;;;;12.05;10.95;;;20.40;99.90;;;;;;5072801;28;20048;-61
2021/04/19 01:25:50;;;;;;;11.30;10.27;;;20.40;99.90;;;;;;5072883;28;20017;-62
2021/04/19 01:28:18;;;;;;;11.95;10.75;;;20.60;99.90;;;;;;5072828;28;20158;-61
2021/04/19 01:30:49;;;;;;;11.05;10.10;;;20.90;99.90;;;;;;5072626;28;20048;-59
2021/04/19 01:33:16;;;;;;;14.30;10.35;;;21.20;99.90;;;;;;5072722;28;20012;-61
2021/04/19 01:35:44;;;;;;;11.45;10.07;;;21.00;99.90;;;;;;5072617;28;20477;-59
2021/04/19 01:38:14;;;;;;;12.57;9.75;;;21.00;99.90;;;;;;5072600;28;20017;-61
2021/04/19 01:40:42;;;;;;;10.68;9.80;;;21.20;99.90;;;;;;5072800;28;20063;-60
2021/04/19 01:43:09;;;;;;;11.30;9.90;;;21.20;99.90;;;;;;5072738;28;20025;-60
2021/04/19 01:45:36;;;;;;;9.85;9.05;;;21.30;99.90;;;;;;5072560;28;20035;-62
2021/04/19 01:48:04;;;;;;;11.45;10.20;;;21.60;99.90;;;;;;5072607;28;20060;-62
2021/04/19 01:50:32;;;;;;;10.77;9.77;;;21.30;99.90;;;;;;5071406;28;20020;-62
2021/04/19 01:53:00;;;;;;;15.90;10.55;;;21.10;99.90;;;;;;5072694;28;20381;-61
2021/04/19 01:55:30;;;;;;;9.88;8.20;;;21.50;99.90;;;;;;5071385;28;20021;-61
2021/04/19 01:58:04;;;;;;;9.60;8.63;;;21.40;99.90;;;;;;5072713;28;20028;-61
2021/04/19 02:00:34;;;;;;;10.10;9.13;;;21.90;99.90;;;;;;5072490;28;20428;-61
2021/04/19 02:03:12;;;;;;;10.25;9.00;;;22.00;99.10;;;;;;5072468;28;20469;-62
2021/04/19 02:05:53;;;;;;;12.15;9.38;;;21.80;99.90;;;;;;5072453;28;20418;-61
2021/04/19 02:08:30;;;;;;;9.32;8.52;;;22.00;99.20;;;;;;5072362;28;20028;-61
2021/04/19 02:11:44;;;;;;;10.45;9.18;;;21.90;99.90;;;;;;5071209;28;20397;-61
2021/04/19 02:14:32;;;;;;;9.50;8.73;;;22.30;98.80;;;;;;5010550;28;20533;-62
2021/04/19 02:17:14;;;;;;;9.77;8.88;;;22.30;98.70;;;;;;5075884;28;20020;-63
2021/04/19 02:20:12;;;;;;;9.02;8.27;;;22.50;97.90;;;;;;5076046;28;20111;-62
2021/04/19 02:22:59;;;;;;;10.95;9.38;;;22.40;98.20;;;;;;5075929;28;20017;-64
2021/04/19 02:25:40;;;;;;;10.68;9.88;;;22.10;97.20;;;;;;5076020;28;20021;-63
2021/04/19 02:28:25;;;;;;;10.35;9.70;;;22.00;97.90;;;;;;5075886;28;20431;-61
2021/04/19 02:30:57;;;;;;;10.68;9.90;;;22.10;98.00;;;;;;5075813;28;20108;-62
2021/04/19 02:33:30;;;;;;;11.02;9.77;;;22.20;98.10;;;;;;5075906;28;20092;-62
2021/04/19 02:35:57;;;;;;;11.02;10.23;;;22.50;98.90;;;;;;5075832;28;20024;-61
2021/04/19 02:38:42;;;;;;;11.65;10.25;;;22.50;97.50;;;;;;5075470;28;20032;-62
2021/04/19 02:41:13;;;;;;;10.30;9.45;;;22.20;97.80;;;;;;5075752;28;20113;-62
2021/04/19 02:43:42;;;;;;;9.88;8.93;;;22.00;98.70;;;;;;5075837;28;20032;-61
2021/04/19 02:46:10;;;;;;;10.02;9.10;;;22.00;98.10;;;;;;5075940;28;20032;-62
2021/04/19 02:48:39;;;;;;;9.75;9.02;;;22.40;99.00;;;;;;5074206;28;20032;-61
2021/04/19 02:51:08;;;;;;;10.73;9.80;;;22.60;97.90;;;;;;5075615;28;20052;-61
2021/04/19 02:53:38;;;;;;;10.82;9.82;;;22.50;97.60;;;;;;5075448;28;20028;-61
2021/04/19 02:56:08;;;;;;;10.75;9.90;;;22.70;97.70;;;;;;5075453;28;20032;-62
2021/04/19 02:58:44;;;;;;;10.40;9.63;;;22.70;98.20;;;;;;5075497;28;20032;-61
2021/04/19 03:01:34;;;;;;;10.68;9.90;;;22.80;98.50;;;;;;5075388;28;20254;-62
2021/04/19 03:04:16;;;;;;;11.27;9.65;;;22.60;98.30;;;;;;5074927;28;20393;-61
2021/04/19 03:06:48;;;;;;;11.35;10.30;;;22.90;98.70;;;;;;5075173;28;20024;-63
2021/04/19 03:09:18;;;;;;;12.05;10.95;;;23.20;99.50;;;;;;5075031;28;20025;-62
2021/04/19 03:11:56;;;;;;;12.38;11.07;;;23.40;99.70;;;;;;5075044;28;20068;-64
2021/04/19 03:14:27;;;;;;;11.00;10.02;;;23.30;99.00;;;;;;5075020;28;20366;-63
2021/04/19 03:17:16;;;;;;;12.07;10.95;;;23.00;99.40;;;;;;5075011;28;20016;-64
2021/04/19 03:19:54;;;;;;;15.90;11.70;;;23.10;99.70;;;;;;5074994;28;20028;-64
2021/04/19 03:22:23;;;;;;;12.65;11.32;;;23.40;99.70;;;;;;5074925;28;20021;-67
2021/04/19 03:24:51;;;;;;;12.27;11.05;;;23.60;99.40;;;;;;5074869;28;20079;-62
2021/04/19 03:27:20;;;;;;;13.85;10.73;;;23.60;99.10;;;;;;5073503;28;20100;-64
2021/04/19 03:29:47;;;;;;;11.52;10.10;;;23.50;99.30;;;;;;5075034;28;20052;-63
2021/04/19 03:32:20;;;;;;;10.73;9.60;;;23.60;99.50;;;;;;5074538;28;20032;-62
2021/04/19 03:34:48;;;;;;;13.20;10.68;;;23.80;99.50;;;;;;5074225;28;20024;-63
2021/04/19 03:37:23;;;;;;;10.88;9.98;;;24.00;99.50;;;;;;5073433;28;20028;-65
2021/04/19 03:40:03;;;;;;;11.60;10.25;;;24.00;99.40;;;;;;5073200;28;20044;-63
2021/04/19 03:42:33;;;;;;;12.20;10.88;;;24.00;99.80;;;;;;5074664;28;20043;-64
2021/04/19 03:45:02;;;;;;;22.77;12.35;;;24.00;99.10;;;;;;5074689;28;20028;-61
2021/04/19 03:47:32;;;;;;;10.32;9.40;;;24.00;99.20;;;;;;5074244;28;20020;-64
2021/04/19 03:50:00;;;;;;;;;;;23.90;99.60;;;;;;5074754;28;20021;-65
2021/04/19 03:52:40;;;;;;;16.83;11.98;;;23.90;98.70;;;;;;5074329;28;19973;-62
2021/04/19 03:55:13;;;;;;;11.75;10.57;;;23.70;98.50;;;;;;5074353;28;20095;-63
2021/04/19 03:57:43;;;;;;;11.45;10.38;;;23.70;99.20;;;;;;5074307;28;20029;-63
2021/04/19 04:00:15;;;;;;;10.98;10.18;;;23.60;99.20;;;;;;5074069;28;20047;-64
2021/04/19 04:02:53;;;;;;;12.43;11.13;;;23.60;99.20;;;;;;5072844;28;20024;-61
2021/04/19 04:05:22;;;;;;;14.55;11.18;;;23.60;99.50;;;;;;5073890;28;20039;-60
2021/04/19 04:07:52;;;;;;;12.70;11.35;;;23.70;99.70;;;;;;5073813;28;20016;-61
2021/04/19 04:10:21;;;;;;;11.40;10.02;;;23.80;99.90;;;;;;5072648;28;20025;-61
2021/04/19 04:12:49;;;;;;;12.30;10.20;;;23.70;99.30;;;;;;5073820;28;20031;-62
2021/04/19 04:24:40;;;;;;;10.23;9.38;;;23.60;99.90;;;;;;5074072;28;20102;-63
2021/04/19 04:27:08;;;;;;;11.30;10.10;;;23.60;99.90;;;;;;5073603;28;20028;-62
2021/04/19 04:29:36;;;;;;;10.30;9.50;;;23.60;99.90;;;;;;5073590;28;20027;-62
2021/04/19 04:32:04;;;;;;;10.38;9.40;;;23.50;99.90;;;;;;5072218;28;20020;-62
2021/04/19 04:34:31;;;;;;;15.70;11.25;;;23.50;99.90;;;;;;5073563;28;20017;-63
2021/04/19 04:37:02;;;;;;;11.20;10.18;;;23.40;99.90;;;;;;5071596;28;20115;-63
2021/04/19 04:39:29;;;;;;;15.23;9.60;;;23.30;99.90;;;;;;5072937;28;20048;-64
2021/04/19 04:41:57;;;;;;;13.35;9.18;;;23.20;99.90;;;;;;5073261;28;20507;-63
2021/04/19 04:44:34;;;;;;;10.70;9.80;;;23.10;99.90;;;;;;5073245;28;20035;-64
2021/04/19 04:47:16;;;;;;;12.27;10.50;;;23.00;99.90;;;;;;5073006;28;20028;-59
2021/04/19 04:49:51;;;;;;;10.35;9.45;;;22.80;99.90;;;;;;5073055;28;20077;-60
2021/04/19 04:52:20;;;;;;;11.45;10.30;;;22.60;99.90;;;;;;5071980;28;20387;-65
2021/04/19 04:54:50;;;;;;;9.98;9.00;;;22.50;99.90;;;;;;5073012;28;20021;-64
2021/04/19 04:57:29;;;;;;;10.02;9.20;;;22.40;99.90;;;;;;5071776;28;20048;-64
2021/04/19 04:59:58;;;;;;;9.93;9.02;;;22.30;99.90;;;;;;5073070;28;20074;-60
2021/04/19 05:02:29;;;;;;;9.67;8.70;;;22.30;99.90;;;;;;5073017;28;20055;-59
2021/04/19 05:04:57;;;;;;;9.15;8.43;;;22.30;99.90;;;;;;5072649;28;20024;-62
2021/04/19 05:07:25;;;;;;;9.35;8.55;;;22.20;99.90;;;;;;5072551;28;20024;-61
2021/04/19 05:09:53;;;;;;;9.65;8.80;;;22.20;99.90;;;;;;5072596;28;20582;-63
2021/04/19 05:12:21;;;;;;;9.82;9.10;;;22.20;99.90;;;;;;5072881;28;20016;-64
2021/04/19 05:15:06;;;;;;;9.65;8.65;;;22.20;99.90;;;;;;5073012;28;20028;-63
2021/04/19 05:17:34;;;;;;;11.98;10.07;;;21.90;99.90;;;;;;5073117;28;20482;-64
2021/04/19 05:20:01;;;;;;;10.60;9.75;;;21.90;99.90;;;;;;5072760;28;20028;-63
2021/04/19 05:22:28;;;;;;;13.50;10.18;;;21.90;99.90;;;;;;5072812;28;20020;-63
2021/04/19 05:24:56;;;;;;;11.52;10.43;;;21.80;99.90;;;;;;5072800;28;20016;-64
2021/04/19 05:27:23;;;;;;;11.05;10.20;;;21.90;99.90;;;;;;5072635;28;20027;-63
2021/04/19 05:29:51;;;;;;;11.15;10.25;;;21.70;99.90;;;;;;5072695;28;20017;-63
2021/04/19 05:32:21;;;;;;;11.65;10.52;;;21.60;99.90;;;;;;5071333;28;20024;-63
2021/04/19 05:34:50;;;;;;;11.38;10.57;;;21.60;99.90;;;;;;5072698;28;20017;-63
2021/04/19 05:37:18;;;;;;;18.90;11.80;;;21.60;99.90;;;;;;5072646;28;20029;-63
2021/04/19 05:39:47;;;;;;;12.75;10.60;;;21.50;99.90;;;;;;5072327;28;20044;-63
2021/04/19 05:42:16;;;;;;;10.80;9.90;;;21.60;99.90;;;;;;5072525;28;20056;-64
2021/04/19 05:44:44;;;;;;;13.07;10.75;;;21.50;99.90;;;;;;5072478;28;20027;-64
2021/04/19 05:47:13;;;;;;;19.17;11.52;;;21.50;99.90;;;;;;5072390;28;20017;-63
2021/04/19 05:49:42;;;;;;;11.52;10.57;;;21.50;99.90;;;;;;5072551;28;20021;-64
2021/04/19 05:52:10;;;;;;;14.48;11.65;;;21.40;99.90;;;;;;5076435;28;20020;-64
2021/04/19 05:54:40;;;;;;;15.82;11.57;;;21.50;99.90;;;;;;5076376;28;20377;-63
2021/04/19 05:57:13;;;;;;;13.43;10.80;;;21.40;99.90;;;;;;5076321;28;20031;-63
2021/04/19 06:00:23;;;;;;;12.25;11.07;;;21.40;99.90;;;;;;5076265;28;20397;-63
2021/04/19 06:03:05;;;;;;;15.53;11.30;;;21.20;99.90;;;;;;5014379;28;20105;-63
2021/04/19 06:05:43;;;;;;;13.55;11.10;;;21.10;99.90;;;;;;4997786;28;20082;-62
2021/04/19 06:08:26;;;;;;;12.07;10.88;;;21.10;99.90;;;;;;5055237;28;20115;-63
2021/04/19 06:11:20;;;;;;;14.75;10.90;;;21.10;99.90;;;;;;5075976;28;20047;-64
2021/04/19 06:13:49;;;;;;;11.20;10.10;;;21.20;99.90;;;;;;5075581;28;20401;-64
2021/04/19 06:16:18;;;;;;;11.20;10.40;;;21.10;99.90;;;;;;5075991;28;20104;-64
2021/04/19 06:18:46;;;;;;;12.23;10.93;;;21.00;99.90;;;;;;5075935;28;20025;-64
2021/04/19 06:21:14;;;;;;;18.48;12.45;;;21.00;99.90;;;;;;5075907;28;20035;-64
2021/04/19 06:23:42;;;;;;;16.75;11.07;;;21.00;99.90;;;;;;5075803;28;20021;-64
2021/04/19 06:26:09;;;;;;;12.10;10.50;;;20.90;99.90;;;;;;5075840;28;20391;-64
2021/04/19 06:28:38;;;;;;;10.82;9.73;;;20.80;99.90;;;;;;5075879;28;20380;-64
2021/04/19 06:31:08;;;;;;;11.35;10.18;;;20.70;99.90;;;;;;5075747;28;20021;-62
2021/04/19 06:33:36;;;;;;;10.77;9.73;;;20.70;99.90;;;;;;5075721;28;20485;-64
2021/04/19 06:36:03;;;;;;;10.57;9.75;;;20.60;99.90;;;;;;5075735;28;20098;-64
2021/04/19 06:38:30;;;;;;;12.93;10.82;;;20.60;99.90;;;;;;5075467;28;20032;-64
2021/04/19 06:40:58;;;;;;;11.95;10.98;;;20.50;99.90;;;;;;5075540;28;20494;-63
2021/04/19 06:43:28;;;;;;;11.30;10.27;;;20.40;99.90;;;;;;5075926;28;20095;-64
2021/04/19 06:45:57;;;;;;;;;;;20.40;99.90;;;;;;5074653;28;20052;-64
2021/04/19 06:48:24;;;;;;;12.60;11.38;;;20.30;99.90;;;;;;5075418;28;19915;-64
2021/04/19 06:50:52;;;;;;;14.18;11.23;;;20.20;99.90;;;;;;5075420;28;20020;-64
2021/04/19 06:53:20;;;;;;;11.82;10.82;;;20.20;99.90;;;;;;5075464;28;20047;-63
2021/04/19 06:55:47;;;;;;;10.82;10.23;;;20.10;99.90;;;;;;5073972;28;20116;-63
2021/04/19 06:58:18;;;;;;;11.45;10.70;;;19.90;99.90;;;;;;5075243;28;20130;-64
2021/04/19 07:00:48;;;;;;;12.15;11.32;;;19.90;99.90;;;;;;5075181;28;20043;-63
2021/04/19 07:03:23;;;;;;;12.38;11.45;;;19.80;99.90;;;;;;5075211;28;20059;-64
2021/04/19 07:05:51;;;;;;;10.18;9.57;;;19.80;99.90;;;;;;5075339;28;20032;-63
2021/04/19 07:08:41;;;;;;;10.05;9.38;;;19.70;99.90;;;;;;5074916;28;20384;-63
2021/04/19 07:11:10;;;;;;;10.85;10.25;;;19.60;99.90;;;;;;5075176;28;20104;-63
2021/04/19 07:13:39;;;;;;;11.45;10.77;;;19.40;99.90;;;;;;5073646;28;20021;-62
2021/04/19 07:16:07;;;;;;;11.25;10.45;;;19.30;99.90;;;;;;5075105;28;20118;-63
2021/04/19 07:18:35;;;;;;;10.98;10.02;;;19.20;99.90;;;;;;5075004;28;20017;-62
2021/04/19 07:21:02;;;;;;;11.13;10.23;;;19.10;99.90;;;;;;5074960;28;20099;-63
2021/04/19 07:23:30;;;;;;;11.02;10.18;;;19.00;99.90;;;;;;5074729;28;20029;-62
2021/04/19 07:25:58;;;;;;;11.10;10.50;;;18.90;99.90;;;;;;5075114;28;20393;-62
2021/04/19 07:28:26;;;;;;;11.48;10.73;;;18.80;99.90;;;;;;5074889;28;20032;-63
2021/04/19 07:31:00;;;;;;;11.65;10.77;;;18.60;99.90;;;;;;5074595;28;20385;-63
2021/04/19 07:33:31;;;;;;;12.55;11.40;;;18.40;99.90;;;;;;5074728;28;20055;-63
2021/04/19 07:36:17;;;;;;;12.07;11.20;;;18.30;99.90;;;;;;5074704;28;20073;-62
2021/04/19 07:38:45;;;;;;;12.93;11.93;;;18.20;99.90;;;;;;5074458;28;20079;-63
2021/04/19 07:41:13;;;;;;;14.50;13.30;;;18.10;99.90;;;;;;5074516;28;20066;-63
2021/04/19 07:43:42;;;;;;;14.75;13.60;;;18.10;99.90;;;;;;5074305;28;20057;-63
2021/04/19 07:46:21;;;;;;;15.00;13.82;;;18.10;99.90;;;;;;5073282;28;20385;-63
2021/04/19 07:48:50;;;;;;;14.57;13.57;;;18.10;99.90;;;;;;5074202;28;20070;-62
2021/04/19 07:51:34;;;;;;;15.20;14.13;;;18.10;99.90;;;;;;5074326;28;20017;-62
2021/04/19 07:54:16;;;;;;;15.40;14.50;;;18.00;99.90;;;;;;5074417;28;20327;-63
2021/04/19 07:56:45;;;;;;;15.68;14.68;;;17.90;99.90;;;;;;5074063;28;20043;-63
2021/04/19 07:59:30;;;;;;;16.33;14.95;;;17.80;99.90;;;;;;5074423;28;20020;-63
2021/04/19 08:02:04;;;;;;;16.20;15.18;;;17.80;99.90;;;;;;5074211;28;20056;-62
2021/04/19 08:04:33;;;;;;;17.92;16.52;;;17.70;99.90;;;;;;5074328;28;20385;-63
2021/04/19 08:07:01;;;;;;;17.52;16.20;;;17.60;99.90;;;;;;5073900;28;20074;-62
2021/04/19 08:09:32;;;;;;;18.10;17.00;;;17.60;99.90;;;;;;5073971;28;20111;-63
2021/04/19 08:12:10;;;;;;;17.85;16.73;;;17.60;99.90;;;;;;5074045;28;20020;-63
2021/04/19 08:14:57;;;;;;;18.67;17.45;;;17.50;99.90;;;;;;5073449;28;20055;-64
2021/04/19 08:17:29;;;;;;;17.35;16.42;;;17.50;99.90;;;;;;5073929;28;20408;-63
2021/04/19 08:19:57;;;;;;;18.52;17.33;;;17.40;99.90;;;;;;5072666;28;20114;-64
2021/04/19 08:22:29;;;;;;;19.17;18.17;;;17.40;99.90;;;;;;5073765;28;20017;-64
2021/04/19 08:25:12;;;;;;;21.70;20.13;;;17.40;99.90;;;;;;5072524;28;20388;-64
2021/04/19 08:27:41;;;;;;;21.83;20.42;;;17.30;99.90;;;;;;5073621;28;20057;-62
2021/04/19 08:30:10;;;;;;;22.85;21.55;;;17.30;99.90;;;;;;5073652;28;20047;-63
2021/04/19 08:32:38;;;;;;;24.27;22.25;;;17.30;99.90;;;;;;5073583;28;20017;-64
2021/04/19 08:35:06;;;;;;;26.10;24.42;;;17.20;99.90;;;;;;5073584;28;20070;-64
2021/04/19 08:37:34;;;;;;;25.95;24.38;;;17.20;99.90;;;;;;5073537;28;20012;-63
2021/04/19 08:40:03;;;;;;;27.98;26.38;;;17.20;99.90;;;;;;5073320;28;20066;-63
2021/04/19 08:42:34;;;;;;;29.40;27.80;;;17.10;99.90;;;;;;5073393;28;20027;-63
2021/04/19 08:45:02;;;;;;;27.83;26.13;;;17.10;99.90;;;;;;5073462;28;20024;-61
2021/04/19 08:47:30;;;;;;;30.48;28.65;;;17.10;99.90;;;;;;5073360;28;20416;-62
2021/04/19 08:49:59;;;;;;;28.70;27.00;;;17.00;99.90;;;;;;5073311;28;20357;-62
2021/04/19 08:52:28;;;;;;;28.92;27.23;;;17.00;99.90;;;;;;5073185;28;20469;-62
2021/04/19 08:54:56;;;;;;;29.05;26.88;;;17.10;99.90;;;;;;5073503;28;20070;-62
2021/04/19 08:57:24;;;;;;;29.17;27.48;;;17.00;99.90;;;;;;5073125;28;20013;-63
2021/04/19 08:59:52;;;;;;;28.90;27.10;;;17.00;99.90;;;;;;5073011;28;20016;-63
2021/04/19 09:02:22;;;;;;;30.40;28.60;;;17.00;99.90;;;;;;5073171;28;20096;-62
2021/04/19 09:05:16;;;;;;;29.98;28.08;;;17.00;99.90;;;;;;5073056;28;20028;-62
2021/04/19 09:07:46;;;;;;;38.80;36.70;;;16.90;99.90;;;;;;5072986;28;20384;-61
2021/04/19 09:10:20;;;;;;;39.85;37.58;;;16.90;99.90;;;;;;5073018;28;20104;-63
2021/04/19 09:12:48;;;;;;;30.77;28.77;;;16.90;99.90;;;;;;5073065;28;20029;-62
2021/04/19 09:15:29;;;;;;;32.22;30.13;;;16.80;99.90;;;;;;5072910;28;20020;-61
2021/04/19 09:18:10;;;;;;;32.97;30.67;;;16.80;99.90;;;;;;5072998;28;20101;-63
2021/04/19 09:20:54;;;;;;;34.17;31.80;;;16.80;99.90;;;;;;5072835;28;20496;-62
2021/04/19 09:23:24;;;;;;;34.15;31.60;;;16.80;99.90;;;;;;5072815;28;20024;-63
2021/04/19 09:25:52;;;;;;;33.25;31.00;;;16.70;99.90;;;;;;5071587;28;20113;-63
2021/04/19 09:28:40;;;;;;;34.95;32.45;;;16.70;99.90;;;;;;5072508;28;20110;-62
2021/04/19 09:31:09;;;;;;;33.08;30.75;;;16.70;99.90;;;;;;5072715;28;20386;-62
2021/04/19 09:33:37;;;;;;;33.95;31.35;;;16.70;99.90;;;;;;5072755;28;20020;-62
2021/04/19 09:36:06;;;;;;;34.10;31.73;;;16.70;99.90;;;;;;5072778;28;20108;-63
2021/04/19 09:38:57;;;;;;;32.53;30.30;;;16.60;99.90;;;;;;5072573;28;20055;-63
2021/04/19 09:41:23;;;;;;;34.30;31.92;;;16.60;99.90;;;;;;5072246;28;20051;-63
2021/04/19 09:43:56;;;;;;;34.42;32.03;;;16.60;99.90;;;;;;5072492;28;20032;-61
2021/04/19 09:46:30;;;;;;;45.15;42.35;;;16.60;99.90;;;;;;5072394;28;20020;-62
2021/04/19 09:49:03;;;;;;;36.97;34.58;;;16.50;99.90;;;;;;5072426;28;20392;-62
2021/04/19 09:51:44;;;;;;;36.83;34.53;;;16.50;99.90;;;;;;5072427;28;20111;-63
2021/04/19 09:54:22;;;;;;;45.25;42.20;;;16.50;99.90;;;;;;5072577;28;20028;-62
2021/04/19 09:56:53;;;;;;;39.53;36.55;;;16.50;99.90;;;;;;5072469;28;20021;-62
2021/04/19 09:59:23;;;;;;;39.05;36.20;;;16.40;99.90;;;;;;5072374;28;20020;-62
2021/04/19 10:01:54;;;;;;;38.75;35.85;;;16.40;99.90;;;;;;5072364;28;20051;-62
2021/04/19 10:04:21;;;;;;;;;;;16.40;99.90;;;;;;5072795;28;20028;-62
2021/04/19 10:06:54;;;;;;;38.10;35.60;;;16.40;99.90;;;;;;5072476;28;19904;-62
2021/04/19 10:09:27;;;;;;;38.60;35.67;;;16.30;99.90;;;;;;5072147;28;20023;-62
2021/04/19 10:12:01;;;;;;;39.15;36.35;;;16.30;99.90;;;;;;5072580;28;20032;-62
2021/04/19 10:14:40;;;;;;;40.17;37.28;;;16.40;99.90;;;;;;5072269;28;20048;-62
2021/04/19 10:17:18;;;;;;;41.25;38.22;;;16.30;99.90;;;;;;5072287;28;20017;-62
2021/04/19 10:19:46;;;;;;;42.03;38.63;;;16.30;99.90;;;;;;5072195;28;20121;-61
2021/04/19 10:22:14;;;;;;;40.95;37.95;;;16.20;99.90;;;;;;5072085;28;20028;-62
2021/04/19 10:24:58;;;;;;;41.33;38.15;;;16.20;99.90;;;;;;5072237;28;20111;-62
2021/04/19 10:27:30;;;;;;;39.80;36.80;;;16.20;99.90;;;;;;5072052;28;20020;-62
2021/04/19 10:30:13;;;;;;;42.40;39.00;;;16.30;99.90;;;;;;5070974;28;20028;-62
2021/04/19 10:32:41;;;;;;;41.88;38.60;;;16.20;99.90;;;;;;5070933;28;20170;-62
2021/04/19 10:35:29;;;;;;;42.53;39.50;;;16.20;99.90;;;;;;5072074;28;20020;-62
2021/04/19 10:37:58;;;;;;;42.60;39.30;;;16.20;99.90;;;;;;5075521;28;20024;-62
2021/04/19 10:40:26;;;;;;;44.53;40.97;;;16.20;99.90;;;;;;5075378;28;20500;-60
2021/04/19 10:43:02;;;;;;;42.50;39.50;;;16.10;99.90;;;;;;5075390;28;20032;-60
2021/04/19 10:45:30;;;;;;;42.25;38.85;;;16.20;99.90;;;;;;5075334;28;20028;-60
2021/04/19 10:48:15;;;;;;;43.03;39.55;;;;;;;;;;5075179;28;20025;-59
2021/04/19 10:50:43;;;;;;;52.78;49.28;;;16.10;99.90;;;;;;5073925;28;20021;-61
2021/04/19 10:53:10;;;;;;;56.08;52.13;;;16.10;99.90;;;;;;5075254;28;20028;-60
2021/04/19 10:55:37;;;;;;;58.83;54.97;;;16.10;99.90;;;;;;5075195;28;20020;-60
2021/04/19 10:58:05;;;;;;;55.58;51.97;;;16.00;99.90;;;;;;5075091;28;20025;-59
2021/04/19 11:00:33;;;;;;;60.67;56.70;;;16.10;99.90;;;;;;5075186;28;20103;-61
2021/04/19 11:03:00;;;;;;;63.03;59.10;;;16.10;99.90;;;;;;5075038;28;20095;-59
2021/04/19 11:05:28;;;;;;;64.68;60.42;;;16.00;99.90;;;;;;5075062;28;20025;-61
2021/04/19 11:07:55;;;;;;;58.70;54.85;;;16.00;99.90;;;;;;5074893;28;20046;-60
2021/04/19 11:10:28;;;;;;;62.40;58.42;;;16.00;99.90;;;;;;5074923;28;20017;-60
2021/04/19 11:12:58;;;;;;;65.32;61.17;;;15.90;99.90;;;;;;5074963;28;20017;-59
2021/04/19 11:15:35;;;;;;;62.78;58.97;;;15.80;99.90;;;;;;5074973;28;20021;-59
2021/04/19 11:18:16;;;;;;;62.30;58.10;;;15.90;99.90;;;;;;5074997;28;20024;-60
2021/04/19 11:20:44;;;;;;;61.65;57.47;;;15.80;99.90;;;;;;5074890;28;20116;-59
2021/04/19 11:23:31;;;;;;;63.42;59.40;;;15.90;99.90;;;;;;5074679;28;20446;-60
2021/04/19 11:26:08;;;;;;;64.63;60.63;;;15.90;99.90;;;;;;5074700;28;20545;-60
2021/04/19 11:28:44;;;;;;;53.10;49.15;;;15.80;99.90;;;;;;5074720;28;20032;-60
2021/04/19 11:31:19;;;;;;;55.47;51.40;;;15.80;99.90;;;;;;5073289;28;20040;-60
2021/04/19 11:33:50;;;;;;;49.58;45.88;;;15.70;99.90;;;;;;5074586;28;20020;-61
2021/04/19 11:36:16;;;;;;;;;;;;;;;;;;5075030;28;20048;-61
2021/04/19 11:38:44;;;;;;;49.22;45.72;;;15.60;99.90;;;;;;5074257;28;20365;-60
2021/04/19 11:41:15;;;;;;;50.65;46.70;;;15.60;99.90;;;;;;5074451;28;20052;-60
2021/04/19 11:43:53;;;;;;;49.13;45.10;;;15.60;99.90;;;;;;5074550;28;20138;-61
2021/04/19 11:46:22;;;;;;;49.97;46.15;;;15.50;99.90;;;;;;5074434;28;20025;-61
2021/04/19 11:48:51;;;;;;;63.60;59.30;;;15.40;99.90;;;;;;5073209;28;20029;-61
2021/04/19 11:51:20;;;;;;;59.20;55.25;;;15.50;99.90;;;;;;5074271;28;20074;-60
2021/04/19 11:53:49;;;;;;;65.45;61.45;;;15.40;99.90;;;;;;5074187;28;20032;-61
2021/04/19 11:56:18;;;;;;;61.73;57.40;;;15.40;99.90;;;;;;5074300;28;20021;-61
2021/04/19 11:58:47;;;;;;;64.05;59.85;;;15.40;99.90;;;;;;5074174;28;20345;-60
2021/04/19 12:01:18;;;;;;;63.75;59.55;;;15.30;99.90;;;;;;5074015;28;20025;-60
2021/04/19 12:03:48;;;;;;;59.97;56.25;;;15.30;99.90;;;;;;5073866;28;20024;-60
2021/04/19 12:06:15;;;;;;;65.65;61.35;;;15.30;99.90;;;;;;5074146;28;20020;-61
2021/04/19 12:08:44;;;;;;;62.00;57.78;;;15.20;99.90;;;;;;5074020;28;20024;-60
2021/04/19 12:11:13;;;;;;;72.10;67.47;;;15.20;99.90;;;;;;5073860;28;20465;-60
2021/04/19 12:13:42;;;;;;;69.18;64.63;;;15.20;99.90;;;;;;5073877;28;20485;-60
2021/04/19 12:16:09;;;;;;;67.70;63.28;;;15.10;99.90;;;;;;5073818;28;20048;-60
2021/04/19 12:18:37;;;;;;;61.42;56.80;;;15.10;99.90;;;;;;5073863;28;20077;-61
2021/04/19 12:21:05;;;;;;;58.45;54.33;;;15.10;99.90;;;;;;5073728;28;20021;-60
2021/04/19 12:23:33;;;;;;;59.55;55.53;;;15.00;99.90;;;;;;5073599;28;20114;-61
2021/04/19 12:26:01;;;;;;;59.95;55.95;;;15.00;99.90;;;;;;5073492;28;20052;-61
2021/04/19 12:28:28;;;;;;;50.60;46.67;;;15.00;99.90;;;;;;5073562;28;20036;-61
2021/04/19 12:30:56;;;;;;;55.20;51.42;;;15.00;99.90;;;;;;5073767;28;20017;-61
2021/04/19 12:33:24;;;;;;;62.78;58.45;;;14.90;99.90;;;;;;5073524;28;20381;-61
2021/04/19 12:35:51;;;;;;;68.00;63.53;;;14.90;99.90;;;;;;5073484;28;20013;-61
2021/04/19 12:38:19;;;;;;;63.58;59.20;;;14.80;99.90;;;;;;5072016;28;20100;-60
2021/04/19 12:40:49;;;;;;;62.03;57.90;;;14.80;99.90;;;;;;5073571;28;20024;-61
2021/04/19 12:43:17;;;;;;;64.10;59.80;;;;;;;;;;5073388;28;20032;-61
2021/04/19 12:45:45;;;;;;;65.20;61.05;;;;;;;;;;5073488;28;20032;-61
2021/04/19 12:48:16;;;;;;;65.13;61.15;;;14.60;99.90;;;;;;5073194;28;20055;-60
2021/04/19 12:50:43;;;;;;;63.78;59.30;;;14.60;99.90;;;;;;5073772;28;20396;-61
2021/04/19 12:53:11;;;;;;;46.92;43.13;;;14.60;99.90;;;;;;5073277;28;20029;-60
2021/04/19 12:55:48;;;;;;;64.97;60.83;;;14.50;99.90;;;;;;5071918;28;20078;-61
2021/04/19 12:58:59;;;;;;;60.58;56.67;;;;;;;;;;5073299;28;20384;-61
2021/04/19 13:01:43;;;;;;;59.80;55.80;;;;;;;;;;5073218;28;20048;-61
2021/04/19 13:04:17;;;;;;;61.85;57.05;;;;;;;;;;5073106;28;20056;-61
2021/04/19 13:07:30;;;;;;;76.60;71.80;;;;;;;;;;5073306;28;20066;-61